sensor_id;sensor_type;location;lat;lon;timestamp;temperature;humidity
7455;HTU21D;3769;51.208;4.454;2024-01-25T00:02:58;9.3;97.6
7455;HTU21D;3769;51.208;4.454;2024-01-25T00:07:58;9.1;97.6
7455;HTU21D;3769;51.208;4.454;2024-01-25T00:12:58;9.1;97.6
7455;HTU21D;3769;51.208;4.454;2024-01-25T00:17:58;9.1;97.6
7455;HTU21D;3769;51.208;4.454;2024-01-25T00:22:58;9;97.6
7455;HTU21D;3769;51.208;4.454;2024-01-25T00:27:58;9;97.6
7455;HTU21D;3769;51.208;4.454;2024-01-25T00:32:58;9;97.6
7455;HTU21D;3769;51.208;4.454;2024-01-25T00:37:58;8.8;97.6
7455;HTU21D;3769;51.208;4.454;2024-01-25T00:42:58;8.8;97.6
7455;HTU21D;3769;51.208;4.454;2024-01-25T00:47:58;8.8;97.6
7455;HTU21D;3769;51.208;4.454;2024-01-25T00:52:58;8.8;97.6
7455;HTU21D;3769;51.208;4.454;2024-01-25T00:57:58;8.8;97.6
7455;HTU21D;3769;51.208;4.454;2024-01-25T01:02:58;8.7;97.6
7455;HTU21D;3769;51.208;4.454;2024-01-25T01:07:58;8.6;97.5
7455;HTU21D;3769;51.208;4.454;2024-01-25T01:12:58;8.6;97.5
7455;HTU21D;3769;51.208;4.454;2024-01-25T01:17:58;8.6;97.5
7455;HTU21D;3769;51.208;4.454;2024-01-25T01:22:58;8.5;97.5
7455;HTU21D;3769;51.208;4.454;2024-01-25T01:27:58;8.6;97.5
7455;HTU21D;3769;51.208;4.454;2024-01-25T01:32:58;8.5;97.5
7455;HTU21D;3769;51.208;4.454;2024-01-25T01:37:58;8.5;97.5
7455;HTU21D;3769;51.208;4.454;2024-01-25T01:42:59;8.4;97.5
7455;HTU21D;3769;51.208;4.454;2024-01-25T01:47:58;8.3;97.5
7455;HTU21D;3769;51.208;4.454;2024-01-25T01:52:58;8.3;97.5
7455;HTU21D;3769;51.208;4.454;2024-01-25T01:57:58;8.5;97.5
7455;HTU21D;3769;51.208;4.454;2024-01-25T02:02:58;8.4;97.5
7455;HTU21D;3769;51.208;4.454;2024-01-25T02:07:58;8.2;97.5
7455;HTU21D;3769;51.208;4.454;2024-01-25T02:12:58;8.1;97.5
7455;HTU21D;3769;51.208;4.454;2024-01-25T02:17:58;8.2;97.5
7455;HTU21D;3769;51.208;4.454;2024-01-25T02:22:58;8.2;97.5
7455;HTU21D;3769;51.208;4.454;2024-01-25T02:27:58;8;97.5
7455;HTU21D;3769;51.208;4.454;2024-01-25T02:32:58;8.3;97.5
7455;HTU21D;3769;51.208;4.454;2024-01-25T02:37:58;8.1;97.5
7455;HTU21D;3769;51.208;4.454;2024-01-25T02:42:58;8.1;97.5
7455;HTU21D;3769;51.208;4.454;2024-01-25T02:47:58;8.3;97.5
7455;HTU21D;3769;51.208;4.454;2024-01-25T02:52:58;8.1;97.5
7455;HTU21D;3769;51.208;4.454;2024-01-25T02:57:58;7.9;97.4
7455;HTU21D;3769;51.208;4.454;2024-01-25T03:02:58;7.8;97.4
7455;HTU21D;3769;51.208;4.454;2024-01-25T03:07:58;7.8;97.4
7455;HTU21D;3769;51.208;4.454;2024-01-25T03:12:58;7.8;97.4
7455;HTU21D;3769;51.208;4.454;2024-01-25T03:17:58;7.7;97.4
7455;HTU21D;3769;51.208;4.454;2024-01-25T03:22:59;7.7;97.4
7455;HTU21D;3769;51.208;4.454;2024-01-25T03:27:59;7.7;97.4
7455;HTU21D;3769;51.208;4.454;2024-01-25T03:32:58;8.1;97.5
7455;HTU21D;3769;51.208;4.454;2024-01-25T03:37:58;7.7;97.4
7455;HTU21D;3769;51.208;4.454;2024-01-25T03:42:58;7.6;97.4
7455;HTU21D;3769;51.208;4.454;2024-01-25T03:47:58;7.7;97.4
7455;HTU21D;3769;51.208;4.454;2024-01-25T03:52:58;7.9;97.4
7455;HTU21D;3769;51.208;4.454;2024-01-25T03:57:58;7.9;97.4
7455;HTU21D;3769;51.208;4.454;2024-01-25T04:02:58;7.5;97.4
7455;HTU21D;3769;51.208;4.454;2024-01-25T04:07:58;7.5;97.4
7455;HTU21D;3769;51.208;4.454;2024-01-25T04:12:58;7.4;97.4
7455;HTU21D;3769;51.208;4.454;2024-01-25T04:17:58;7.7;97.4
7455;HTU21D;3769;51.208;4.454;2024-01-25T04:22:58;7.9;97.4
7455;HTU21D;3769;51.208;4.454;2024-01-25T04:27:58;7.5;97.4
7455;HTU21D;3769;51.208;4.454;2024-01-25T04:32:58;7.5;97.4
7455;HTU21D;3769;51.208;4.454;2024-01-25T04:37:58;7.3;97.3
7455;HTU21D;3769;51.208;4.454;2024-01-25T04:42:58;7;97.3
7455;HTU21D;3769;51.208;4.454;2024-01-25T04:47:58;6.8;97.3
7455;HTU21D;3769;51.208;4.454;2024-01-25T04:52:58;6.8;97.3
7455;HTU21D;3769;51.208;4.454;2024-01-25T04:57:58;6.6;97.2
7455;HTU21D;3769;51.208;4.454;2024-01-25T05:02:58;7;97.3
7455;HTU21D;3769;51.208;4.454;2024-01-25T05:07:58;7.1;97.3
7455;HTU21D;3769;51.208;4.454;2024-01-25T05:12:58;7;97.3
7455;HTU21D;3769;51.208;4.454;2024-01-25T05:17:58;7;97.3
7455;HTU21D;3769;51.208;4.454;2024-01-25T05:22:58;6.6;97.2
7455;HTU21D;3769;51.208;4.454;2024-01-25T05:27:58;6.6;97.2
7455;HTU21D;3769;51.208;4.454;2024-01-25T05:32:58;6.4;97.2
7455;HTU21D;3769;51.208;4.454;2024-01-25T05:37:58;6.9;97.3
7455;HTU21D;3769;51.208;4.454;2024-01-25T05:42:59;6.8;97.3
7455;HTU21D;3769;51.208;4.454;2024-01-25T05:47:58;6.7;97.3
7455;HTU21D;3769;51.208;4.454;2024-01-25T05:52:58;6.6;97.2
7455;HTU21D;3769;51.208;4.454;2024-01-25T05:57:58;6.7;97.2
7455;HTU21D;3769;51.208;4.454;2024-01-25T06:02:58;6.6;97.2
7455;HTU21D;3769;51.208;4.454;2024-01-25T06:07:58;6.4;97.2
7455;HTU21D;3769;51.208;4.454;2024-01-25T06:12:58;6.7;97.3
7455;HTU21D;3769;51.208;4.454;2024-01-25T06:17:58;6.7;97.2
7455;HTU21D;3769;51.208;4.454;2024-01-25T06:22:58;6.6;97.2
7455;HTU21D;3769;51.208;4.454;2024-01-25T06:27:58;6.7;97.3
7455;HTU21D;3769;51.208;4.454;2024-01-25T06:32:58;6.7;97.3
7455;HTU21D;3769;51.208;4.454;2024-01-25T06:37:58;6.5;97.2
7455;HTU21D;3769;51.208;4.454;2024-01-25T06:42:58;6.6;97.2
7455;HTU21D;3769;51.208;4.454;2024-01-25T06:47:58;6.9;97.3
7455;HTU21D;3769;51.208;4.454;2024-01-25T06:52:58;6.7;97.3
7455;HTU21D;3769;51.208;4.454;2024-01-25T06:57:58;6.7;97.3
7455;HTU21D;3769;51.208;4.454;2024-01-25T07:02:58;6.5;97.2
7455;HTU21D;3769;51.208;4.454;2024-01-25T07:07:58;6.5;97.2
7455;HTU21D;3769;51.208;4.454;2024-01-25T07:12:58;6.4;97.2
7455;HTU21D;3769;51.208;4.454;2024-01-25T07:17:58;6.8;97.3
7455;HTU21D;3769;51.208;4.454;2024-01-25T07:22:58;6.7;97.3
7455;HTU21D;3769;51.208;4.454;2024-01-25T07:27:58;7;97.3
7455;HTU21D;3769;51.208;4.454;2024-01-25T07:32:58;6.7;97.3
7455;HTU21D;3769;51.208;4.454;2024-01-25T07:37:58;6.7;97.3
7455;HTU21D;3769;51.208;4.454;2024-01-25T07:42:58;6.8;97.3
7455;HTU21D;3769;51.208;4.454;2024-01-25T07:47:58;6.7;97.3
7455;HTU21D;3769;51.208;4.454;2024-01-25T07:52:58;6.6;97.2
7455;HTU21D;3769;51.208;4.454;2024-01-25T07:57:58;7;97.3
7455;HTU21D;3769;51.208;4.454;2024-01-25T08:02:58;7.1;97.3
7455;HTU21D;3769;51.208;4.454;2024-01-25T08:07:58;7;97.3
7455;HTU21D;3769;51.208;4.454;2024-01-25T08:12:58;6.9;97.3
7455;HTU21D;3769;51.208;4.454;2024-01-25T08:17:58;6.7;97.3
7455;HTU21D;3769;51.208;4.454;2024-01-25T08:22:58;7;97.3
7455;HTU21D;3769;51.208;4.454;2024-01-25T08:27:58;7.2;97.3
7455;HTU21D;3769;51.208;4.454;2024-01-25T08:32:58;6.9;97.3
7455;HTU21D;3769;51.208;4.454;2024-01-25T08:37:58;6.9;97.3
7455;HTU21D;3769;51.208;4.454;2024-01-25T08:42:58;7.1;97.3
7455;HTU21D;3769;51.208;4.454;2024-01-25T08:47:58;7.3;97.3
7455;HTU21D;3769;51.208;4.454;2024-01-25T08:52:58;7.1;97.3
7455;HTU21D;3769;51.208;4.454;2024-01-25T08:57:58;7.1;97.3
7455;HTU21D;3769;51.208;4.454;2024-01-25T09:02:58;7.2;97.3
7455;HTU21D;3769;51.208;4.454;2024-01-25T09:07:58;7.2;97.3
7455;HTU21D;3769;51.208;4.454;2024-01-25T09:12:58;7.4;97.4
7455;HTU21D;3769;51.208;4.454;2024-01-25T09:17:58;7.5;97.4
7455;HTU21D;3769;51.208;4.454;2024-01-25T09:22:58;7.4;97.4
7455;HTU21D;3769;51.208;4.454;2024-01-25T09:27:58;7.6;97.4
7455;HTU21D;3769;51.208;4.454;2024-01-25T09:32:58;7.7;97.4
7455;HTU21D;3769;51.208;4.454;2024-01-25T09:37:58;7.7;97.4
7455;HTU21D;3769;51.208;4.454;2024-01-25T09:42:58;7.8;97.4
7455;HTU21D;3769;51.208;4.454;2024-01-25T09:47:58;7.8;97.4
7455;HTU21D;3769;51.208;4.454;2024-01-25T09:52:58;8;97.5
7455;HTU21D;3769;51.208;4.454;2024-01-25T09:57:58;8;97.4
7455;HTU21D;3769;51.208;4.454;2024-01-25T10:02:58;8;97.4
7455;HTU21D;3769;51.208;4.454;2024-01-25T10:07:58;8;97.4
7455;HTU21D;3769;51.208;4.454;2024-01-25T10:12:58;8.2;97.5
7455;HTU21D;3769;51.208;4.454;2024-01-25T10:17:58;7.9;97.4
7455;HTU21D;3769;51.208;4.454;2024-01-25T10:22:58;7.8;97.4
7455;HTU21D;3769;51.208;4.454;2024-01-25T10:27:58;7.7;97.4
7455;HTU21D;3769;51.208;4.454;2024-01-25T10:32:58;7.8;97.4
7455;HTU21D;3769;51.208;4.454;2024-01-25T10:37:58;7.7;97.4
7455;HTU21D;3769;51.208;4.454;2024-01-25T10:42:58;7.7;97.4
7455;HTU21D;3769;51.208;4.454;2024-01-25T10:47:59;7.7;97.4
7455;HTU21D;3769;51.208;4.454;2024-01-25T10:52:58;7.9;97.4
7455;HTU21D;3769;51.208;4.454;2024-01-25T10:57:58;7.9;97.4
7455;HTU21D;3769;51.208;4.454;2024-01-25T11:03:00;7.9;97.4
7455;HTU21D;3769;51.208;4.454;2024-01-25T11:07:59;8.1;97.5
7455;HTU21D;3769;51.208;4.454;2024-01-25T11:12:59;8.1;97.5
7455;HTU21D;3769;51.208;4.454;2024-01-25T11:17:58;8.1;97.5
7455;HTU21D;3769;51.208;4.454;2024-01-25T11:23:02;8.1;97.5
7455;HTU21D;3769;51.208;4.454;2024-01-25T11:27:59;8.3;97.5
7455;HTU21D;3769;51.208;4.454;2024-01-25T11:32:58;8.4;97.5
7455;HTU21D;3769;51.208;4.454;2024-01-25T11:37:58;8.4;97.5
7455;HTU21D;3769;51.208;4.454;2024-01-25T11:42:58;8.5;97.5
7455;HTU21D;3769;51.208;4.454;2024-01-25T11:47:58;8.5;97.5
7455;HTU21D;3769;51.208;4.454;2024-01-25T11:52:58;8.5;97.5
7455;HTU21D;3769;51.208;4.454;2024-01-25T11:57:58;8.6;97.5
7455;HTU21D;3769;51.208;4.454;2024-01-25T12:02:58;8.6;97.5
7455;HTU21D;3769;51.208;4.454;2024-01-25T12:07:58;8.7;97.6
7455;HTU21D;3769;51.208;4.454;2024-01-25T12:12:58;8.8;97.6
7455;HTU21D;3769;51.208;4.454;2024-01-25T12:17:58;8.8;97.6
7455;HTU21D;3769;51.208;4.454;2024-01-25T12:22:58;8.8;97.6
7455;HTU21D;3769;51.208;4.454;2024-01-25T12:27:59;8.9;97.6
7455;HTU21D;3769;51.208;4.454;2024-01-25T12:32:58;9;97.6
7455;HTU21D;3769;51.208;4.454;2024-01-25T12:37:58;9;97.6
7455;HTU21D;3769;51.208;4.454;2024-01-25T12:42:58;9.1;97.6
7455;HTU21D;3769;51.208;4.454;2024-01-25T12:47:58;9.1;97.6
7455;HTU21D;3769;51.208;4.454;2024-01-25T12:52:58;9.1;97.6
7455;HTU21D;3769;51.208;4.454;2024-01-25T12:57:58;9.1;97.6
7455;HTU21D;3769;51.208;4.454;2024-01-25T13:02:58;9.1;97.6
7455;HTU21D;3769;51.208;4.454;2024-01-25T13:07:58;9.2;97.6
7455;HTU21D;3769;51.208;4.454;2024-01-25T13:12:58;9.2;97.6
7455;HTU21D;3769;51.208;4.454;2024-01-25T13:17:58;9.2;97.6
7455;HTU21D;3769;51.208;4.454;2024-01-25T13:22:58;9.3;97.6
7455;HTU21D;3769;51.208;4.454;2024-01-25T13:27:59;9.3;97.7
7455;HTU21D;3769;51.208;4.454;2024-01-25T13:32:58;9.3;97.6
7455;HTU21D;3769;51.208;4.454;2024-01-25T13:37:58;9.3;97.7
7455;HTU21D;3769;51.208;4.454;2024-01-25T13:42:58;9.3;97.6
7455;HTU21D;3769;51.208;4.454;2024-01-25T13:47:58;9.4;97.7
7455;HTU21D;3769;51.208;4.454;2024-01-25T13:52:58;9.4;97.7
7455;HTU21D;3769;51.208;4.454;2024-01-25T13:57:58;9.4;97.7
7455;HTU21D;3769;51.208;4.454;2024-01-25T14:02:58;9.5;97.7
7455;HTU21D;3769;51.208;4.454;2024-01-25T14:07:58;9.4;97.7
7455;HTU21D;3769;51.208;4.454;2024-01-25T14:12:59;9.4;97.7
7455;HTU21D;3769;51.208;4.454;2024-01-25T14:17:59;9.4;97.7
7455;HTU21D;3769;51.208;4.454;2024-01-25T14:22:58;9.5;97.7
7455;HTU21D;3769;51.208;4.454;2024-01-25T14:27:58;9.5;97.7
7455;HTU21D;3769;51.208;4.454;2024-01-25T14:32:58;9.5;97.7
7455;HTU21D;3769;51.208;4.454;2024-01-25T14:37:58;9.4;97.7
7455;HTU21D;3769;51.208;4.454;2024-01-25T14:42:58;9.5;97.7
7455;HTU21D;3769;51.208;4.454;2024-01-25T14:47:58;9.4;97.7
7455;HTU21D;3769;51.208;4.454;2024-01-25T14:52:58;9.4;97.7
7455;HTU21D;3769;51.208;4.454;2024-01-25T14:57:58;9.5;97.7
7455;HTU21D;3769;51.208;4.454;2024-01-25T15:02:58;9.6;97.7
7455;HTU21D;3769;51.208;4.454;2024-01-25T15:07:58;9.5;97.7
7455;HTU21D;3769;51.208;4.454;2024-01-25T15:12:58;9.5;97.7
7455;HTU21D;3769;51.208;4.454;2024-01-25T15:17:59;9.7;97.7
7455;HTU21D;3769;51.208;4.454;2024-01-25T15:22:58;9.8;97.7
7455;HTU21D;3769;51.208;4.454;2024-01-25T15:27:59;9.8;97.7
7455;HTU21D;3769;51.208;4.454;2024-01-25T15:32:58;9.7;97.7
7455;HTU21D;3769;51.208;4.454;2024-01-25T15:37:58;9.8;97.7
7455;HTU21D;3769;51.208;4.454;2024-01-25T15:42:58;9.7;97.7
7455;HTU21D;3769;51.208;4.454;2024-01-25T15:47:58;9.7;97.7
7455;HTU21D;3769;51.208;4.454;2024-01-25T15:52:58;9.7;97.7
7455;HTU21D;3769;51.208;4.454;2024-01-25T15:57:58;9.7;97.7
7455;HTU21D;3769;51.208;4.454;2024-01-25T16:02:58;9.8;97.7
7455;HTU21D;3769;51.208;4.454;2024-01-25T16:07:58;9.7;97.7
7455;HTU21D;3769;51.208;4.454;2024-01-25T16:12:58;9.9;97.7
7455;HTU21D;3769;51.208;4.454;2024-01-25T16:17:58;10;97.8
7455;HTU21D;3769;51.208;4.454;2024-01-25T16:22:58;10.2;97.8
7455;HTU21D;3769;51.208;4.454;2024-01-25T16:27:58;10.3;97.8
7455;HTU21D;3769;51.208;4.454;2024-01-25T16:32:58;10.3;97.8
7455;HTU21D;3769;51.208;4.454;2024-01-25T16:37:58;10.1;97.8
7455;HTU21D;3769;51.208;4.454;2024-01-25T16:42:59;10;97.8
7455;HTU21D;3769;51.208;4.454;2024-01-25T16:47:58;10;97.7
7455;HTU21D;3769;51.208;4.454;2024-01-25T16:52:58;9.9;97.7
7455;HTU21D;3769;51.208;4.454;2024-01-25T16:57:58;9.8;97.7
7455;HTU21D;3769;51.208;4.454;2024-01-25T17:02:58;9.8;97.7
7455;HTU21D;3769;51.208;4.454;2024-01-25T17:07:58;9.7;97.7
7455;HTU21D;3769;51.208;4.454;2024-01-25T17:12:58;9.7;97.7
7455;HTU21D;3769;51.208;4.454;2024-01-25T17:17:58;9.7;97.7
7455;HTU21D;3769;51.208;4.454;2024-01-25T17:22:58;9.7;97.7
7455;HTU21D;3769;51.208;4.454;2024-01-25T17:27:58;9.8;97.7
7455;HTU21D;3769;51.208;4.454;2024-01-25T17:32:58;9.7;97.7
7455;HTU21D;3769;51.208;4.454;2024-01-25T17:37:58;9.7;97.7
7455;HTU21D;3769;51.208;4.454;2024-01-25T17:42:58;9.8;97.7
7455;HTU21D;3769;51.208;4.454;2024-01-25T17:47:58;9.8;97.7
7455;HTU21D;3769;51.208;4.454;2024-01-25T17:53:00;9.8;97.7
7455;HTU21D;3769;51.208;4.454;2024-01-25T17:57:58;9.7;97.7
7455;HTU21D;3769;51.208;4.454;2024-01-25T18:02:58;9.7;97.7
7455;HTU21D;3769;51.208;4.454;2024-01-25T18:07:58;9.7;97.7
7455;HTU21D;3769;51.208;4.454;2024-01-25T18:12:58;9.7;97.7
7455;HTU21D;3769;51.208;4.454;2024-01-25T18:17:58;9.8;97.7
7455;HTU21D;3769;51.208;4.454;2024-01-25T18:22:58;9.8;97.7
7455;HTU21D;3769;51.208;4.454;2024-01-25T18:27:58;9.7;97.7
7455;HTU21D;3769;51.208;4.454;2024-01-25T18:32:58;9.8;97.7
7455;HTU21D;3769;51.208;4.454;2024-01-25T18:37:58;9.7;97.7
7455;HTU21D;3769;51.208;4.454;2024-01-25T18:42:58;9.8;97.7
7455;HTU21D;3769;51.208;4.454;2024-01-25T18:47:58;9.8;97.7
7455;HTU21D;3769;51.208;4.454;2024-01-25T18:52:58;9.8;97.7
7455;HTU21D;3769;51.208;4.454;2024-01-25T18:57:58;9.8;97.7
7455;HTU21D;3769;51.208;4.454;2024-01-25T19:02:58;9.8;97.7
7455;HTU21D;3769;51.208;4.454;2024-01-25T19:07:58;9.8;97.7
7455;HTU21D;3769;51.208;4.454;2024-01-25T19:12:58;10;97.7
7455;HTU21D;3769;51.208;4.454;2024-01-25T19:17:58;9.9;97.7
7455;HTU21D;3769;51.208;4.454;2024-01-25T19:22:58;9.9;97.7
7455;HTU21D;3769;51.208;4.454;2024-01-25T19:27:58;10;97.7
7455;HTU21D;3769;51.208;4.454;2024-01-25T19:32:58;9.9;97.7
7455;HTU21D;3769;51.208;4.454;2024-01-25T19:37:58;9.9;97.7
7455;HTU21D;3769;51.208;4.454;2024-01-25T19:42:58;10;97.7
7455;HTU21D;3769;51.208;4.454;2024-01-25T19:47:58;9.9;97.7
7455;HTU21D;3769;51.208;4.454;2024-01-25T19:52:58;10;97.8
7455;HTU21D;3769;51.208;4.454;2024-01-25T19:57:59;10;97.8
7455;HTU21D;3769;51.208;4.454;2024-01-25T20:02:59;10.1;97.8
7455;HTU21D;3769;51.208;4.454;2024-01-25T20:07:59;10;97.8
7455;HTU21D;3769;51.208;4.454;2024-01-25T20:12:58;10.1;97.8
7455;HTU21D;3769;51.208;4.454;2024-01-25T20:17:58;10;97.8
7455;HTU21D;3769;51.208;4.454;2024-01-25T20:22:58;10.2;97.8
7455;HTU21D;3769;51.208;4.454;2024-01-25T20:27:58;10.2;97.8
7455;HTU21D;3769;51.208;4.454;2024-01-25T20:32:58;10.1;97.8
7455;HTU21D;3769;51.208;4.454;2024-01-25T20:37:58;10.2;97.8
7455;HTU21D;3769;51.208;4.454;2024-01-25T20:42:58;10.3;97.8
7455;HTU21D;3769;51.208;4.454;2024-01-25T20:47:58;10.2;97.8
7455;HTU21D;3769;51.208;4.454;2024-01-25T20:52:58;10.3;97.8
7455;HTU21D;3769;51.208;4.454;2024-01-25T20:57:58;10.2;97.8
7455;HTU21D;3769;51.208;4.454;2024-01-25T21:02:59;10.3;97.8
7455;HTU21D;3769;51.208;4.454;2024-01-25T21:07:58;10.2;97.8
7455;HTU21D;3769;51.208;4.454;2024-01-25T21:12:58;10.3;97.8
7455;HTU21D;3769;51.208;4.454;2024-01-25T21:17:58;10.3;97.8
7455;HTU21D;3769;51.208;4.454;2024-01-25T21:22:59;10.4;97.8
7455;HTU21D;3769;51.208;4.454;2024-01-25T21:27:59;10.4;97.8
7455;HTU21D;3769;51.208;4.454;2024-01-25T21:32:58;10.3;97.8
7455;HTU21D;3769;51.208;4.454;2024-01-25T21:37:58;10.3;97.8
7455;HTU21D;3769;51.208;4.454;2024-01-25T21:42:58;10.4;97.8
7455;HTU21D;3769;51.208;4.454;2024-01-25T21:47:58;10.5;97.8
7455;HTU21D;3769;51.208;4.454;2024-01-25T21:52:58;10.4;97.8
7455;HTU21D;3769;51.208;4.454;2024-01-25T21:57:58;10.5;97.8
7455;HTU21D;3769;51.208;4.454;2024-01-25T22:02:58;10.4;97.8
7455;HTU21D;3769;51.208;4.454;2024-01-25T22:07:58;10.5;97.8
7455;HTU21D;3769;51.208;4.454;2024-01-25T22:12:58;10.4;97.8
7455;HTU21D;3769;51.208;4.454;2024-01-25T22:17:58;10.5;97.8
7455;HTU21D;3769;51.208;4.454;2024-01-25T22:22:58;10.5;97.8
7455;HTU21D;3769;51.208;4.454;2024-01-25T22:27:58;10.5;97.8
7455;HTU21D;3769;51.208;4.454;2024-01-25T22:32:58;10.7;97.8
7455;HTU21D;3769;51.208;4.454;2024-01-25T22:37:59;10.4;97.8
7455;HTU21D;3769;51.208;4.454;2024-01-25T22:42:58;10.5;97.8
7455;HTU21D;3769;51.208;4.454;2024-01-25T22:47:58;10.5;97.8
7455;HTU21D;3769;51.208;4.454;2024-01-25T22:52:58;10.5;97.8
7455;HTU21D;3769;51.208;4.454;2024-01-25T22:57:58;10.6;97.8
7455;HTU21D;3769;51.208;4.454;2024-01-25T23:02:59;10.5;97.8
7455;HTU21D;3769;51.208;4.454;2024-01-25T23:07:59;10.5;97.8
7455;HTU21D;3769;51.208;4.454;2024-01-25T23:12:58;10.6;97.8
7455;HTU21D;3769;51.208;4.454;2024-01-25T23:17:58;10.6;97.8
7455;HTU21D;3769;51.208;4.454;2024-01-25T23:22:59;10.5;97.8
7455;HTU21D;3769;51.208;4.454;2024-01-25T23:27:58;10.6;97.8
7455;HTU21D;3769;51.208;4.454;2024-01-25T23:32:58;10.5;97.8
7455;HTU21D;3769;51.208;4.454;2024-01-25T23:37:58;10.7;97.9
7455;HTU21D;3769;51.208;4.454;2024-01-25T23:42:58;10.6;97.8
7455;HTU21D;3769;51.208;4.454;2024-01-25T23:47:59;10.6;97.8
7455;HTU21D;3769;51.208;4.454;2024-01-25T23:52:58;10.6;97.8
7455;HTU21D;3769;51.208;4.454;2024-01-25T23:57:58;10.5;97.8
